Centerpoint, Alabama
Current Conditions -  °F | °C
As of 8:53 PM on Friday 21 Nov 2014 (Local Time) from KBHM Reporting Station
Clear Clear  
Wind Chill: 54°   Ceiling: Unl
Heat Index: 54°   Visibility: 10mi
Dew Point: 38°   Wind: 6mph
Humidity: 55%   Direction: NA
Pressure: 30.38"   Gusts: NA
Location:  33.6283°N, 86.6434°W
Report Text: KBHM 220253Z VRB05KT 10SM CLR 12/03 A3038 RMK AO2 SLP286 T01220033 51006
Loading
Personal Weather Stations






























Interactive Weather Map New forecast layout! Learn more

10-Day Weather Forecast

Advertisements
Track Severe Weather on mobile